Pagina principale
METAR-TAF:

METAR-TAF

Aeroporti :

Aeroporto di Lecce-Galatina

Lecce, Italia

latitudine: 40-14N, longitudine: 018-09E, altezza: 48 m

Osservazione

Il bollettino è stato emesso 57 minuti fa, alle 15:55 UTC
Vento 5 kt da sud/sud-est
Temperature 10°C
Umidità 87%
Pressione 1021 hPa
Visibilità 10 km o più
Nubi sparse ad un'altezza di 2500 ft

METAR: LIBN 201555Z 15005KT 9999 SCT025 10/08 Q1021 RMK BKN BKN060 VIS MIN 9999 WIND THR14 16005KT WIND THR32 17003KT BLU

Ora: 17:52 (16:52 UTC)

Previsione

Il bollettino è stato emesso 2 ore e 52 minuti fa, alle 14:00 UTC
Previsione valida dal 20 alle 15 UTC al 20 alle 24 UTC
Vento 6 kt da sud
Visibilità 10 km o più
Nubi sparse ad un'altezza di 2500 ft

TAF: LIBN 201400Z 2015/2024 17006KT 9999 SCT025

Osservazioni e previsioni meteorologiche di più di 4000 aeroporti (messaggi METAR e TAF).

Le stazioni disponibili sono rappresentate dai dischi gialli e rossi sulla carta.

Puntare il mouse per vedere il nome della stazione.

Clicca sopra per visualizzare le osservazioni e previsioni meteorologiche.

Per cambiare la mappa : fare clic sui pulsanti verdi con una croce nera per ingrandire, il pulsante verde con un trattino per diminuire, o sulla freccia verde per le mappe adiacenti.


METAR-TAF: